Time;durP1;ratioP1;P1;durP2;ratioP2;P2;SDS_P1;SDS_P2;PMS_P1;PMS_P2;Temp;Humidity;BMP_temperature;BMP_pressure;BME280_temperature;BME280_humidity;BME280_pressure;Samples;Min_cycle;Max_cycle;Signal;HPM_P1;HPM_P2
2022/06/01 00:00:25;;;;;;;;;;;;;;;19.33;72.55;99711.47;5011207;28;19923;-84
2022/06/01 00:02:50;;;;;;;;;;;;;;;19.25;73.18;99713.69;5030063;28;20444;-84
2022/06/01 00:05:16;;;;;;;;;;;;;;;19.30;73.09;99712.47;5012561;28;19967;-85
2022/06/01 00:07:41;;;;;;;;;;;;;;;19.23;73.66;99711.09;5029515;28;19921;-85
2022/06/01 00:10:07;;;;;;;;;;;;;;;19.12;73.79;99702.72;5029292;28;19909;-84
2022/06/01 00:12:34;;;;;;;;;;;;;;;19.16;73.84;99709.66;5029989;28;20075;-85
2022/06/01 00:15:00;;;;;;;;;;;;;;;19.14;73.37;99709.72;5010797;28;20379;-84
2022/06/01 00:17:25;;;;;;;;;;;;;;;19.09;73.16;99702.88;5029317;28;20160;-84
2022/06/01 00:19:50;;;;;;;;;;;;;;;19.10;73.27;99712.63;5029402;28;19947;-85
2022/06/01 00:22:16;;;;;;;;;;;;;;;19.03;74.07;99713.88;5030174;28;20741;-84
2022/06/01 00:24:43;;;;;;;;;;;;;;;19.05;73.74;99707.50;5010799;28;19920;-83
2022/06/01 00:27:09;;;;;;;;;;;;;;;19.11;73.64;99709.88;5033575;28;19924;-82
2022/06/01 00:29:35;;;;;;;;;;;;;;;19.14;72.57;99707.06;5029682;28;20017;-84
2022/06/01 00:32:00;;;;;;;;;;;;;;;19.29;71.49;99701.88;5049272;28;19960;-84
2022/06/01 00:34:26;;;;;;;;;;;;;;;19.23;71.72;99705.72;5031291;28;19916;-85
2022/06/01 00:36:51;;;;;;;;;;;;;;;19.30;71.76;99708.94;5049620;28;19964;-85
2022/06/01 00:39:16;;;;;;;;;;;;;;;19.18;72.78;99706.91;5048074;28;20402;-85
2022/06/01 00:41:42;;;;;;;;;;;;;;;19.22;72.76;99713.84;5032856;28;19920;-85
2022/06/01 00:44:07;;;;;;;;;;;;;;;18.81;74.04;99716.72;5032944;28;19920;-85
2022/06/01 00:46:33;;;;;;;;;;;;;;;18.86;74.56;99720.03;5048655;28;19916;-84
2022/06/01 00:49:01;;;;;;;;;;;;;;;18.84;74.31;99719.22;5049089;28;19952;-85
2022/06/01 00:51:27;;;;;;;;;;;;;;;18.90;74.41;99717.16;5032935;28;19920;-84
2022/06/01 00:53:53;;;;;;;;;;;;;;;18.87;74.84;99716.44;5028790;28;20011;-84
2022/06/01 00:56:21;;;;;;;;;;;;;;;18.90;75.31;99714.47;5029251;28;20439;-84
2022/06/01 00:58:48;;;;;;;;;;;;;;;18.93;75.09;99705.44;5028631;28;19921;-84
2022/06/01 01:01:16;;;;;;;;;;;;;;;19.00;74.66;99706.00;5041332;28;19920;-85
2022/06/01 01:03:42;;;;;;;;;;;;;;;18.94;74.93;99709.88;5022747;28;20484;-84
2022/06/01 01:06:17;;;;;;;;;;;;;;;18.91;74.97;99702.84;5028998;28;19970;-84
2022/06/01 01:08:43;;;;;;;;;;;;;;;18.70;75.26;99710.06;5033047;28;19950;-84
2022/06/01 01:11:10;;;;;;;;;;;;;;;18.64;75.30;99702.34;5033614;28;19921;-83
2022/06/01 01:13:37;;;;;;;;;;;;;;;18.56;75.02;99716.06;5029304;28;19963;-84
2022/06/01 01:16:03;;;;;;;;;;;;;;;18.40;75.19;99707.94;5029198;28;19917;-85
2022/06/01 01:18:35;;;;;;;;;;;;;;;18.32;75.38;99703.88;5028897;28;19916;-83
2022/06/01 01:21:20;;;;;;;;;;;;;;;18.27;75.59;99713.91;5042154;28;20442;-85
2022/06/01 01:24:04;;;;;;;;;;;;;;;18.29;75.77;99704.03;5046785;28;20291;-84
2022/06/01 01:26:31;;;;;;;;;;;;;;;18.24;75.72;99704.25;5029401;28;20389;-85
2022/06/01 01:28:56;;;;;;;;;;;;;;;18.16;75.73;99698.41;5027706;28;20341;-84
2022/06/01 01:31:23;;;;;;;;;;;;;;;18.00;76.11;99695.56;5028270;28;19921;-84
2022/06/01 01:33:49;;;;;;;;;;;;;;;17.92;75.70;99697.72;5028410;28;19913;-85
2022/06/01 01:36:16;;;;;;;;;;;;;;;17.58;76.75;99694.72;5028483;28;19917;-84
2022/06/01 01:38:41;;;;;;;;;;;;;;;17.82;76.97;99692.75;5028035;28;19923;-85
2022/06/01 01:41:14;;;;;;;;;;;;;;;18.08;75.96;99696.09;5028205;28;19920;-85
2022/06/01 01:43:46;;;;;;;;;;;;;;;18.24;75.36;99690.88;5027603;28;19927;-84
2022/06/01 01:46:11;;;;;;;;;;;;;;;18.37;75.17;99689.38;5029096;28;19913;-84
2022/06/01 01:48:37;;;;;;;;;;;;;;;18.48;75.31;99682.69;5027225;28;19994;-85
2022/06/01 01:51:03;;;;;;;;;;;;;;;18.55;75.40;99684.09;5027438;28;20425;-84
2022/06/01 01:53:32;;;;;;;;;;;;;;;18.42;75.26;99690.03;5009187;28;19979;-85
2022/06/01 01:56:03;;;;;;;;;;;;;;;18.45;75.24;99691.69;5027491;28;20350;-84
2022/06/01 01:58:31;;;;;;;;;;;;;;;18.45;75.64;99690.84;5027872;28;19979;-83
2022/06/01 02:01:00;;;;;;;;;;;;;;;18.42;74.91;99691.84;5008603;28;20350;-84
2022/06/01 02:03:31;;;;;;;;;;;;;;;18.49;74.82;99693.28;5027605;28;19924;-84
2022/06/01 02:06:07;;;;;;;;;;;;;;;18.66;74.34;99687.13;5027840;28;20330;-84
2022/06/01 02:08:33;;;;;;;;;;;;;;;18.51;74.90;99688.72;5026590;28;19927;-84
2022/06/01 02:13:56;;;;;;;;;;;;;;;18.45;75.11;99686.34;5026609;28;19974;-84
2022/06/01 02:16:24;;;;;;;;;;;;;;;18.29;75.78;99688.00;5009855;28;20398;-85
2022/06/01 02:18:52;;;;;;;;;;;;;;;18.21;77.11;99699.94;5008650;28;19924;-84
2022/06/01 02:21:20;;;;;;;;;;;;;;;18.35;76.71;99695.72;5026804;28;19924;-85
2022/06/01 02:23:47;;;;;;;;;;;;;;;18.37;76.33;99699.22;5026382;28;20418;-84
2022/06/01 02:26:13;;;;;;;;;;;;;;;18.40;76.54;99697.25;5027062;28;20391;-85
2022/06/01 02:28:41;;;;;;;;;;;;;;;18.43;76.43;99698.91;5044256;28;19924;-85
2022/06/01 02:31:07;;;;;;;;;;;;;;;18.45;76.09;99696.19;5046277;28;19924;-85
2022/06/01 02:33:33;;;;;;;;;;;;;;;18.49;76.11;99695.97;5046608;28;19927;-84
2022/06/01 02:36:00;;;;;;;;;;;;;;;18.31;76.16;99697.69;5047245;28;20279;-85
2022/06/01 02:38:39;;;;;;;;;;;;;;;18.35;76.32;99695.72;5021487;28;20339;-84
2022/06/01 02:41:05;;;;;;;;;;;;;;;18.41;76.46;99692.75;5046240;28;19921;-84
2022/06/01 02:43:30;;;;;;;;;;;;;;;18.40;76.30;99694.59;5036970;28;19928;-85
2022/06/01 02:45:56;;;;;;;;;;;;;;;18.38;76.46;99692.91;5028738;28;19925;-88
2022/06/01 02:48:21;;;;;;;;;;;;;;;18.29;76.85;99688.00;5027408;28;19939;-89
2022/06/01 02:50:47;;;;;;;;;;;;;;;18.29;77.01;99698.69;5044897;28;19921;-86
2022/06/01 02:53:12;;;;;;;;;;;;;;;18.26;77.20;99702.38;5040412;28;20426;-88
2022/06/01 02:55:37;;;;;;;;;;;;;;;18.37;76.79;99694.72;5027942;28;19909;-88
2022/06/01 02:58:03;;;;;;;;;;;;;;;18.31;76.77;99692.34;5027620;28;19913;-87
2022/06/01 03:00:32;;;;;;;;;;;;;;;18.40;76.55;99693.72;5017902;28;19964;-90
2022/06/01 03:03:00;;;;;;;;;;;;;;;18.31;76.51;99689.69;5014683;28;19917;-91
2022/06/01 03:05:33;;;;;;;;;;;;;;;18.20;76.57;99692.00;5026087;28;19921;-91
2022/06/01 03:08:01;;;;;;;;;;;;;;;18.31;76.28;99703.03;5048618;28;19975;-91
2022/06/01 03:10:48;;;;;;;;;;;;;;;18.28;76.40;99700.50;5016643;28;20020;-94
2022/06/01 03:13:13;;;;;;;;;;;;;;;18.31;76.32;99707.50;5027217;28;19971;-91
2022/06/01 03:15:39;;;;;;;;;;;;;;;17.86;77.50;99713.03;5031380;28;19913;-94
2022/06/01 03:18:04;;;;;;;;;;;;;;;17.95;77.47;99714.47;5028504;28;19979;-93
2022/06/01 03:20:34;;;;;;;;;;;;;;;18.11;76.07;99711.09;5039291;28;19913;-92
2022/06/01 03:23:08;;;;;;;;;;;;;;;18.07;76.71;99707.69;5030296;28;20305;-93
2022/06/01 03:25:36;;;;;;;;;;;;;;;18.20;75.83;99711.53;5056918;28;20437;-92
2022/06/01 03:28:01;;;;;;;;;;;;;;;18.14;76.10;99709.16;5036075;28;19920;-91
2022/06/01 03:30:27;;;;;;;;;;;;;;;18.25;75.56;99711.31;5019036;28;20090;-91
2022/06/01 03:32:54;;;;;;;;;;;;;;;18.32;75.33;99710.09;5021081;28;20357;-94
2022/06/01 03:35:22;;;;;;;;;;;;;;;18.46;73.99;99709.47;5037534;28;19920;-92
2022/06/01 03:37:48;;;;;;;;;;;;;;;18.39;74.00;99706.19;5040658;28;19982;-90
2022/06/01 03:40:15;;;;;;;;;;;;;;;18.41;73.79;99709.69;5019592;28;20019;-90
2022/06/01 03:42:40;;;;;;;;;;;;;;;18.55;73.33;99717.03;5034465;28;20414;-94
2022/06/01 03:48:11;;;;;;;;;;;;;;;19.22;73.28;99713.84;5000043;28;20039;-91
2022/06/01 03:50:36;;;;;;;;;;;;;;;19.36;72.34;99714.00;5022769;28;20011;-89
2022/06/01 03:53:02;;;;;;;;;;;;;;;19.43;71.89;99717.22;5032701;28;19917;-89
2022/06/01 03:55:28;;;;;;;;;;;;;;;19.43;71.98;99718.09;5049944;28;20287;-89
2022/06/01 03:57:53;;;;;;;;;;;;;;;19.41;72.83;99722.63;5032180;28;19932;-88
2022/06/01 04:00:23;;;;;;;;;;;;;;;19.43;71.39;99718.09;5015216;28;19917;-90
2022/06/01 04:02:49;;;;;;;;;;;;;;;19.06;71.04;99724.41;5013193;28;19986;-92
2022/06/01 04:05:15;;;;;;;;;;;;;;;19.11;70.06;99720.56;5013229;28;19967;-88
2022/06/01 04:07:41;;;;;;;;;;;;;;;19.01;69.81;99716.63;5041666;28;19920;-87
2022/06/01 04:10:08;;;;;;;;;;;;;;;19.42;70.29;99713.69;5034078;28;19936;-89
2022/06/01 04:12:33;;;;;;;;;;;;;;;19.74;69.27;99713.81;5018354;28;19924;-90
2022/06/01 04:14:58;;;;;;;;;;;;;;;19.85;68.49;99716.81;5030498;28;19917;-89
2022/06/01 04:17:24;;;;;;;;;;;;;;;20.22;67.70;99716.66;5029683;28;19967;-89
2022/06/01 04:19:49;;;;;;;;;;;;;;;20.51;66.73;99707.00;5031347;28;19971;-88
2022/06/01 04:22:15;;;;;;;;;;;;;;;20.75;66.45;99714.63;5053554;28;19921;-87
2022/06/01 04:24:40;;;;;;;;;;;;;;;20.89;66.31;99720.06;5031630;28;19920;-88
2022/06/01 04:27:07;;;;;;;;;;;;;;;20.70;66.07;99720.25;5049998;28;19916;-88
2022/06/01 04:29:33;;;;;;;;;;;;;;;20.58;66.86;99728.97;5048556;28;20019;-88
2022/06/01 04:32:06;;;;;;;;;;;;;;;20.65;67.32;99721.47;5033581;28;20466;-88
2022/06/01 04:34:32;;;;;;;;;;;;;;;20.75;67.87;99720.84;5030104;28;19932;-89
2022/06/01 04:36:57;;;;;;;;;;;;;;;20.80;67.79;99728.63;5029519;28;19913;-89
2022/06/01 04:39:23;;;;;;;;;;;;;;;20.88;67.12;99729.09;5021299;28;19927;-89
2022/06/01 04:41:49;;;;;;;;;;;;;;;20.98;67.28;99731.25;5049257;28;19912;-88
2022/06/01 04:44:14;;;;;;;;;;;;;;;21.10;66.10;99728.69;5037551;28;20016;-88
2022/06/01 04:46:40;;;;;;;;;;;;;;;21.28;65.78;99728.56;5022934;28;19920;-88
2022/06/01 04:49:07;;;;;;;;;;;;;;;21.61;64.93;99728.41;5057362;28;20382;-88
2022/06/01 04:51:33;;;;;;;;;;;;;;;21.80;64.92;99727.31;5055360;28;19971;-87
2022/06/01 04:53:58;;;;;;;;;;;;;;;22.00;63.72;99726.06;5029517;28;19921;-87
2022/06/01 04:56:24;;;;;;;;;;;;;;;22.06;62.59;99735.56;5069601;28;20401;-90
2022/06/01 04:58:50;;;;;;;;;;;;;;;22.21;62.77;99731.91;5040012;28;19928;-90
2022/06/01 05:01:15;;;;;;;;;;;;;;;22.26;62.62;99737.00;5048194;28;19921;-87
2022/06/01 05:03:40;;;;;;;;;;;;;;;22.54;60.46;99746.91;5049307;28;19928;-89
2022/06/01 05:06:06;;;;;;;;;;;;;;;22.98;59.99;99731.53;5031152;28;19925;-90
2022/06/01 05:08:31;;;;;;;;;;;;;;;23.18;59.14;99738.31;5037171;28;20432;-90
2022/06/01 05:10:57;;;;;;;;;;;;;;;22.85;57.62;99745.78;5016486;28;19952;-88
2022/06/01 05:13:22;;;;;;;;;;;;;;;22.77;57.92;99747.22;5039865;28;19923;-89
2022/06/01 05:15:49;;;;;;;;;;;;;;;23.00;57.85;99746.63;5050578;28;20064;-91
2022/06/01 05:18:15;;;;;;;;;;;;;;;22.91;56.33;99752.59;5033348;28;19927;-92
2022/06/01 05:20:42;;;;;;;;;;;;;;;22.46;58.17;99754.56;5032539;28;19917;-91
2022/06/01 05:23:08;;;;;;;;;;;;;;;22.57;58.56;99762.84;5015582;28;19921;-91
2022/06/01 05:25:34;;;;;;;;;;;;;;;22.82;57.42;99763.97;5050282;28;20352;-91
2022/06/01 05:27:59;;;;;;;;;;;;;;;22.79;56.19;99765.00;5020425;28;20414;-91
2022/06/01 05:30:25;;;;;;;;;;;;;;;22.89;56.56;99770.63;5021809;28;19959;-90
2022/06/01 05:32:50;;;;;;;;;;;;;;;23.32;53.75;99769.69;5029582;28;19919;-92
2022/06/01 05:35:15;;;;;;;;;;;;;;;23.29;56.41;99767.19;5049520;28;19912;-90
2022/06/01 05:37:41;;;;;;;;;;;;;;;23.38;54.92;99766.56;5049798;28;20015;-91
2022/06/01 05:40:07;;;;;;;;;;;;;;;23.58;53.25;99762.53;5031014;28;19924;-91
2022/06/01 05:42:32;;;;;;;;;;;;;;;23.72;53.58;99759.75;5030267;28;20410;-91
2022/06/01 05:44:57;;;;;;;;;;;;;;;23.93;54.14;99759.28;5013796;28;19916;-91
2022/06/01 05:47:23;;;;;;;;;;;;;;;24.21;53.87;99760.03;5030843;28;19995;-91
2022/06/01 05:49:48;;;;;;;;;;;;;;;23.81;54.23;99752.03;5030705;28;19939;-91
2022/06/01 05:52:18;;;;;;;;;;;;;;;23.98;54.06;99757.13;5031852;28;19914;-91
2022/06/01 05:54:43;;;;;;;;;;;;;;;24.15;53.61;99753.25;5015625;28;19917;-92
2022/06/01 05:57:08;;;;;;;;;;;;;;;24.47;54.15;99763.56;5030801;28;19924;-90
2022/06/01 05:59:34;;;;;;;;;;;;;;;24.72;50.93;99757.28;5048422;28;19924;-91
2022/06/01 06:02:00;;;;;;;;;;;;;;;24.89;51.61;99745.25;5030598;28;19931;-91
2022/06/01 06:04:25;;;;;;;;;;;;;;;25.20;51.04;99762.72;5030692;28;19917;-91
2022/06/01 06:06:50;;;;;;;;;;;;;;;25.26;49.20;99761.41;5014617;28;20452;-90
2022/06/01 06:09:16;;;;;;;;;;;;;;;24.93;52.01;99756.69;5047538;28;19947;-90
2022/06/01 06:11:41;;;;;;;;;;;;;;;25.43;49.24;99756.59;5030658;28;19913;-92
2022/06/01 06:14:07;;;;;;;;;;;;;;;25.64;50.19;99757.66;5031270;28;19939;-92
2022/06/01 06:16:35;;;;;;;;;;;;;;;25.88;50.64;99759.44;5031619;28;20409;-93
2022/06/01 06:19:01;;;;;;;;;;;;;;;25.93;48.34;99765.34;5046855;28;19916;-92
2022/06/01 06:21:28;;;;;;;;;;;;;;;26.47;46.84;99771.94;5050619;28;19994;-90
2022/06/01 06:23:57;;;;;;;;;;;;;;;26.47;48.96;99766.53;5049771;28;19916;-92
2022/06/01 06:26:24;;;;;;;;;;;;;;;27.27;45.41;99761.88;5043006;28;19986;-89
2022/06/01 06:28:49;;;;;;;;;;;;;;;27.16;44.25;99760.06;5032218;28;19932;-92
2022/06/01 06:31:16;;;;;;;;;;;;;;;27.26;44.74;99760.13;5031334;28;19913;-93
2022/06/01 06:33:41;;;;;;;;;;;;;;;27.48;45.44;99753.78;5048228;28;19972;-92
2022/06/01 06:36:07;;;;;;;;;;;;;;;27.39;45.39;99750.03;5049594;28;19955;-91
2022/06/01 06:38:36;;;;;;;;;;;;;;;27.32;43.23;99752.38;5049927;28;19923;-93
2022/06/01 06:41:04;;;;;;;;;;;;;;;27.64;44.73;99745.22;5032241;28;20367;-93
2022/06/01 06:43:30;;;;;;;;;;;;;;;26.90;45.84;99744.13;5015906;28;20007;-91
2022/06/01 06:45:57;;;;;;;;;;;;;;;27.72;43.94;99742.72;5015641;28;19923;-92
2022/06/01 06:48:23;;;;;;;;;;;;;;;27.96;42.35;99742.47;5026114;28;20003;-92
2022/06/01 06:50:48;;;;;;;;;;;;;;;26.94;47.49;99748.31;5030511;28;20014;-93
2022/06/01 06:53:13;;;;;;;;;;;;;;;27.38;44.03;99744.75;5048194;28;20417;-91
2022/06/01 06:55:39;;;;;;;;;;;;;;;27.26;44.41;99749.31;5032834;28;19966;-93
2022/06/01 06:58:06;;;;;;;;;;;;;;;28.02;43.02;99732.94;5034724;28;19917;-91
2022/06/01 07:00:31;;;;;;;;;;;;;;;28.67;41.79;99736.25;5034032;28;19916;-93
2022/06/01 07:02:58;;;;;;;;;;;;;;;29.34;40.33;99731.09;5034349;28;19917;-93
2022/06/01 07:08:07;;;;;;;;;;;;;;;27.97;44.11;99737.91;5052463;28;19919;-93
2022/06/01 07:10:33;;;;;;;;;;;;;;;28.29;40.34;99732.38;5033475;28;20330;-91
2022/06/01 07:12:58;;;;;;;;;;;;;;;28.55;41.50;99726.47;5034010;28;20310;-90
2022/06/01 07:15:23;;;;;;;;;;;;;;;28.89;42.31;99734.31;5051719;28;20310;-91
2022/06/01 07:17:49;;;;;;;;;;;;;;;29.24;39.15;99727.50;5051218;28;19948;-91
2022/06/01 07:20:15;;;;;;;;;;;;;;;29.62;37.52;99733.94;5051963;28;19924;-91
2022/06/01 07:22:40;;;;;;;;;;;;;;;29.72;41.02;99726.63;5051154;28;20418;-92
2022/06/01 07:25:06;;;;;;;;;;;;;;;28.71;39.99;99721.38;5033984;28;19931;-93
2022/06/01 07:27:31;;;;;;;;;;;;;;;29.50;39.38;99716.91;5032943;28;19917;-92
2022/06/01 07:29:56;;;;;;;;;;;;;;;29.29;38.29;99722.50;5033584;28;20302;-92
2022/06/01 07:32:21;;;;;;;;;;;;;;;29.65;38.48;99717.31;5050823;28;19969;-91
2022/06/01 07:34:47;;;;;;;;;;;;;;;29.45;40.80;99717.34;5051412;28;20003;-91
2022/06/01 07:45:24;;;;;;;;;;;;;;;29.98;37.16;99713.28;5051109;28;19975;-91
2022/06/01 07:47:49;;;;;;;;;;;;;;;30.03;40.52;99699.25;5031631;28;19924;-91
2022/06/01 07:50:15;;;;;;;;;;;;;;;30.13;38.51;99708.22;5033213;28;20294;-91
2022/06/01 07:52:40;;;;;;;;;;;;;;;29.95;38.95;99705.44;5032003;28;20313;-89
2022/06/01 07:55:06;;;;;;;;;;;;;;;30.08;35.95;99704.25;5059983;28;19916;-92
2022/06/01 07:57:32;;;;;;;;;;;;;;;30.34;38.05;99688.94;5050344;28;19916;-92
2022/06/01 07:59:58;;;;;;;;;;;;;;;29.54;38.24;99702.03;5049366;28;19917;-91
2022/06/01 08:02:23;;;;;;;;;;;;;;;30.05;43.47;99699.94;5050230;28;19913;-91
2022/06/01 08:04:49;;;;;;;;;;;;;;;30.07;39.02;99706.09;5049936;28;20381;-91
2022/06/01 08:07:14;;;;;;;;;;;;;;;30.53;37.86;99709.78;5049417;28;19935;-89
2022/06/01 08:09:39;;;;;;;;;;;;;;;31.15;36.42;99703.66;5032330;28;20417;-89
2022/06/01 08:14:49;;;;;;;;;;;;;;;31.43;41.42;99700.84;5050068;28;20445;-89
2022/06/01 08:17:15;;;;;;;;;;;;;;;32.37;36.71;99701.16;5032436;28;19912;-89
2022/06/01 08:19:41;;;;;;;;;;;;;;;32.24;36.60;99705.19;5049990;28;19912;-88
2022/06/01 08:22:08;;;;;;;;;;;;;;;31.72;38.91;99703.31;5032287;28;19913;-89
2022/06/01 08:24:33;;;;;;;;;;;;;;;32.28;33.28;99705.72;5049733;28;20015;-88
2022/06/01 08:26:58;;;;;;;;;;;;;;;32.09;38.15;99694.03;5050296;28;20019;-90
2022/06/01 08:29:24;;;;;;;;;;;;;;;32.48;37.63;99692.66;5049572;28;19951;-89
2022/06/01 08:31:49;;;;;;;;;;;;;;;32.54;35.45;99696.63;5032132;28;19912;-88
2022/06/01 08:34:16;;;;;;;;;;;;;;;33.17;34.80;99687.91;5032096;28;19917;-90
2022/06/01 08:36:41;;;;;;;;;;;;;;;32.90;33.30;99694.53;5049747;28;19913;-89
2022/06/01 08:39:08;;;;;;;;;;;;;;;32.41;34.08;99691.59;5050094;28;19913;-90
2022/06/01 08:41:35;;;;;;;;;;;;;;;32.21;36.28;99691.88;5032065;28;20354;-89
2022/06/01 08:44:27;;;;;;;;;;;;;;;31.98;34.73;99696.13;5049418;28;20461;-90
2022/06/01 08:47:04;;;;;;;;;;;;;;;32.05;34.24;99694.47;5045667;28;19921;-88
2022/06/01 08:49:33;;;;;;;;;;;;;;;31.70;35.35;99693.56;5049694;28;19912;-87
2022/06/01 08:51:58;;;;;;;;;;;;;;;31.80;33.60;99686.16;5031356;28;19960;-87
2022/06/01 08:54:25;;;;;;;;;;;;;;;31.70;37.92;99688.13;5049352;28;19963;-87
2022/06/01 08:57:12;;;;;;;;;;;;;;;31.64;38.47;99686.91;5049510;28;19916;-87
2022/06/01 08:59:58;;;;;;;;;;;;;;;32.26;37.04;99681.31;5049455;28;20294;-87
2022/06/01 09:02:45;;;;;;;;;;;;;;;31.99;35.26;99682.34;5030930;28;20036;-89
2022/06/01 09:05:13;;;;;;;;;;;;;;;31.54;35.39;99667.94;5049469;28;19917;-87
2022/06/01 09:07:38;;;;;;;;;;;;;;;32.07;38.92;99678.81;5049031;28;19924;-88
2022/06/01 09:10:16;;;;;;;;;;;;;;;32.24;32.73;99674.31;5049018;28;20298;-90
2022/06/01 09:12:43;;;;;;;;;;;;;;;32.34;32.52;99671.47;5049004;28;19916;-87
2022/06/01 09:15:23;;;;;;;;;;;;;;;32.08;34.80;99665.00;5048338;28;19917;-86
2022/06/01 09:17:48;;;;;;;;;;;;;;;32.37;34.25;99673.88;5048316;28;20437;-86
2022/06/01 09:23:03;;;;;;;;;;;;;;;32.49;35.38;99664.38;5047628;28;19919;-86
2022/06/01 09:25:34;;;;;;;;;;;;;;;31.88;38.28;99667.09;5048689;28;19924;-87
2022/06/01 09:28:02;;;;;;;;;;;;;;;32.29;35.04;99664.63;5048468;28;19928;-88
2022/06/01 09:30:34;;;;;;;;;;;;;;;32.55;35.71;99657.38;5029888;28;20329;-86
2022/06/01 09:33:21;;;;;;;;;;;;;;;32.92;32.72;99645.19;5047784;28;19917;-86
2022/06/01 09:36:01;;;;;;;;;;;;;;;33.10;31.79;99651.34;5048417;28;19970;-87
2022/06/01 09:38:36;;;;;;;;;;;;;;;33.33;35.11;99647.97;5048664;28;19923;-87
2022/06/01 09:41:17;;;;;;;;;;;;;;;33.85;33.51;99639.38;5048206;28;20280;-85
2022/06/01 09:43:48;;;;;;;;;;;;;;;33.26;31.34;99644.22;5048440;28;19920;-85
2022/06/01 09:46:22;;;;;;;;;;;;;;;32.49;33.28;99650.72;5048699;28;19956;-86
2022/06/01 09:48:47;;;;;;;;;;;;;;;32.59;36.44;99642.38;5030508;28;19920;-86
2022/06/01 09:51:25;;;;;;;;;;;;;;;32.10;32.62;99649.38;5048033;28;19946;-87
2022/06/01 09:54:08;;;;;;;;;;;;;;;32.65;32.83;99642.59;5048299;28;19913;-86
2022/06/01 09:56:36;;;;;;;;;;;;;;;33.02;34.37;99641.28;5048308;28;19908;-86
2022/06/01 10:07:21;;;;;;;;;;;;;;;33.28;34.37;99629.34;5028146;28;20411;-85
2022/06/01 10:09:50;;;;;;;;;;;;;;;32.95;32.46;99621.13;5044967;28;19917;-85
2022/06/01 10:12:19;;;;;;;;;;;;;;;33.12;31.13;99623.84;5047439;28;19938;-86
2022/06/01 10:14:51;;;;;;;;;;;;;;;33.28;32.31;99617.59;5047444;28;19920;-86
2022/06/01 10:17:26;;;;;;;;;;;;;;;33.35;32.34;99615.84;5047634;28;20478;-86
2022/06/01 10:20:15;;;;;;;;;;;;;;;33.27;31.67;99619.44;5046045;28;19927;-86
2022/06/01 10:22:56;;;;;;;;;;;;;;;32.78;33.48;99616.66;5027797;28;19913;-86
2022/06/01 10:25:27;;;;;;;;;;;;;;;32.48;33.98;99611.63;5027642;28;19913;-86
2022/06/01 10:27:59;;;;;;;;;;;;;;;32.77;33.37;99614.97;5016211;28;19927;-85
2022/06/01 10:30:45;;;;;;;;;;;;;;;32.94;31.68;99604.91;5027232;28;19999;-86
2022/06/01 10:33:17;;;;;;;;;;;;;;;32.78;32.04;99611.19;5026442;28;20007;-87
2022/06/01 10:35:48;;;;;;;;;;;;;;;33.24;30.12;99605.28;5026712;28;20453;-87
2022/06/01 10:38:35;;;;;;;;;;;;;;;33.39;31.06;99608.19;5027599;28;19917;-86
2022/06/01 10:41:01;;;;;;;;;;;;;;;32.55;32.21;99613.69;5026745;28;19960;-86
2022/06/01 10:43:26;;;;;;;;;;;;;;;32.30;31.79;99606.31;5027632;28;19971;-84
2022/06/01 10:45:53;;;;;;;;;;;;;;;32.48;32.88;99602.59;5027653;28;19917;-86
2022/06/01 10:48:28;;;;;;;;;;;;;;;33.48;30.37;99605.25;5026057;28;20031;-86
2022/06/01 10:50:56;;;;;;;;;;;;;;;34.02;30.24;99609.25;5027542;28;19943;-85
2022/06/01 10:53:33;;;;;;;;;;;;;;;33.71;29.99;99604.53;5027131;28;19921;-87
2022/06/01 10:55:59;;;;;;;;;;;;;;;33.27;30.16;99602.19;5027588;28;19917;-86
2022/06/01 10:58:25;;;;;;;;;;;;;;;33.30;29.25;99605.44;5027645;28;19917;-86
2022/06/01 11:00:50;;;;;;;;;;;;;;;33.04;29.28;99605.59;5027657;28;20387;-87
2022/06/01 11:03:25;;;;;;;;;;;;;;;33.47;27.19;99598.06;5026374;28;19917;-86
2022/06/01 11:05:56;;;;;;;;;;;;;;;34.02;27.71;99607.34;5027380;28;19917;-86
2022/06/01 11:08:33;;;;;;;;;;;;;;;33.40;30.99;99609.88;5027509;28;19924;-87
2022/06/01 11:11:02;;;;;;;;;;;;;;;33.27;30.19;99592.13;5007358;28;19937;-86
2022/06/01 11:13:43;;;;;;;;;;;;;;;33.54;29.05;99592.78;5006596;28;20620;-88
2022/06/01 11:16:08;;;;;;;;;;;;;;;33.75;28.62;99594.94;5006004;28;20020;-88
2022/06/01 11:18:52;;;;;;;;;;;;;;;34.11;28.50;99591.75;5005928;28;19999;-90
2022/06/01 11:21:17;;;;;;;;;;;;;;;33.96;29.22;99586.16;5005883;28;19925;-89
2022/06/01 11:23:45;;;;;;;;;;;;;;;34.33;27.66;99587.38;5007908;28;19917;-90
2022/06/01 11:26:14;;;;;;;;;;;;;;;34.19;29.20;99578.03;5007555;28;19946;-89
2022/06/01 11:28:42;;;;;;;;;;;;;;;34.21;28.87;99575.09;5024139;28;19921;-88
2022/06/01 11:31:16;;;;;;;;;;;;;;;34.05;27.69;99573.31;5009213;28;20327;-89
2022/06/01 11:33:50;;;;;;;;;;;;;;;33.63;26.88;99569.84;5026836;28;19971;-88
2022/06/01 11:36:18;;;;;;;;;;;;;;;33.91;29.64;99572.19;5027068;28;19917;-90
2022/06/01 11:38:49;;;;;;;;;;;;;;;34.00;28.37;99572.97;5026830;28;19928;-87
2022/06/01 11:41:19;;;;;;;;;;;;;;;34.30;26.54;99563.09;5027264;28;19989;-88
2022/06/01 11:43:48;;;;;;;;;;;;;;;34.40;25.74;99560.13;5030761;28;20436;-88
2022/06/01 11:46:21;;;;;;;;;;;;;;;33.93;25.76;99563.78;5030625;28;20008;-87
2022/06/01 11:48:48;;;;;;;;;;;;;;;33.79;25.64;99562.66;5031009;28;19952;-87
2022/06/01 11:51:18;;;;;;;;;;;;;;;33.57;27.32;99569.69;5030321;28;20407;-87
2022/06/01 11:53:43;;;;;;;;;;;;;;;33.85;26.96;99568.25;5030765;28;20533;-88
2022/06/01 11:56:36;;;;;;;;;;;;;;;33.74;25.46;99563.19;5030446;28;20016;-88
2022/06/01 11:59:04;;;;;;;;;;;;;;;33.40;27.63;99557.94;5027553;28;19916;-88
2022/06/01 12:01:44;;;;;;;;;;;;;;;33.62;26.50;99567.28;5012475;28;19913;-88
2022/06/01 12:04:12;;;;;;;;;;;;;;;33.56;24.28;99563.38;5030394;28;19924;-88
2022/06/01 12:06:58;;;;;;;;;;;;;;;33.49;24.51;99562.34;5020507;28;19921;-89
2022/06/01 12:09:29;;;;;;;;;;;;;;;33.61;24.10;99568.31;5029785;28;19920;-90
2022/06/01 12:11:55;;;;;;;;;;;;;;;33.84;26.39;99572.00;5050049;28;19917;-90
2022/06/01 12:14:35;;;;;;;;;;;;;;;33.60;24.04;99570.19;5049074;28;19931;-90
2022/06/01 12:17:17;;;;;;;;;;;;;;;33.87;21.29;99565.34;5050633;28;19920;-91
2022/06/01 12:19:45;;;;;;;;;;;;;;;34.26;21.87;99564.50;5012465;28;20438;-90
2022/06/01 12:28:31;;;;;;;;;;;;;;;33.63;23.26;99556.19;5029120;28;19917;-89
2022/06/01 12:31:12;;;;;;;;;;;;;;;33.29;26.09;99540.00;5014719;28;19917;-89
2022/06/01 12:33:56;;;;;;;;;;;;;;;33.42;27.10;99540.34;5049920;28;20031;-89
2022/06/01 12:36:22;;;;;;;;;;;;;;;34.22;25.17;99542.09;5050233;28;20007;-92
2022/06/01 12:38:48;;;;;;;;;;;;;;;34.48;25.32;99543.66;5049535;28;20249;-88
2022/06/01 12:41:21;;;;;;;;;;;;;;;34.57;25.63;99534.38;5049428;28;20382;-89
2022/06/01 12:43:50;;;;;;;;;;;;;;;34.36;24.53;99543.22;5048557;28;19912;-88
2022/06/01 12:46:24;;;;;;;;;;;;;;;34.34;24.02;99539.81;5030935;28;19924;-89
2022/06/01 12:48:49;;;;;;;;;;;;;;;34.76;26.13;99535.78;5049055;28;19923;-88
2022/06/01 12:51:15;;;;;;;;;;;;;;;34.94;25.63;99534.59;5048978;28;19916;-87
2022/06/01 12:53:49;;;;;;;;;;;;;;;34.21;26.19;99534.91;5032789;28;20043;-89
2022/06/01 12:56:18;;;;;;;;;;;;;;;34.11;27.01;99534.28;5041796;28;20409;-87
2022/06/01 12:58:44;;;;;;;;;;;;;;;34.46;25.56;99542.97;5049052;28;20011;-88
2022/06/01 13:01:10;;;;;;;;;;;;;;;34.56;24.82;99540.03;5048417;28;19924;-88
2022/06/01 13:03:41;;;;;;;;;;;;;;;34.61;24.13;99535.69;5049303;28;20124;-88
2022/06/01 13:06:08;;;;;;;;;;;;;;;34.72;23.21;99530.81;5049283;28;19965;-88
2022/06/01 13:08:39;;;;;;;;;;;;;;;34.60;24.01;99538.59;5048698;28;19960;-88
2022/06/01 13:11:12;;;;;;;;;;;;;;;34.81;24.29;99523.44;5011294;28;20318;-87
2022/06/01 13:13:37;;;;;;;;;;;;;;;34.78;22.91;99513.69;5028914;28;19920;-88
2022/06/01 13:16:04;;;;;;;;;;;;;;;34.99;23.09;99515.72;5042070;28;19920;-90
2022/06/01 13:18:32;;;;;;;;;;;;;;;34.74;23.25;99515.03;5048672;28;19920;-88
2022/06/01 13:21:02;;;;;;;;;;;;;;;35.01;23.82;99516.38;5048681;28;19920;-88
2022/06/01 13:23:29;;;;;;;;;;;;;;;34.66;24.33;99509.63;5049175;28;19913;-87
2022/06/01 13:25:58;;;;;;;;;;;;;;;34.79;23.50;99508.00;5048845;28;19917;-87
2022/06/01 13:28:25;;;;;;;;;;;;;;;34.88;24.22;99511.53;5048589;28;20398;-87
2022/06/01 13:30:51;;;;;;;;;;;;;;;35.26;23.64;99507.94;5048215;28;19919;-88